KBLM

Monmouth Executive Airport

Belmar/Farmingdale, New Jersey, USA
METAR KBLM 171556Z AUTO 19005KT 10SM CLR 29/23 A3008 RMK AO2 SLP186 T02940233
Observed Flight Rules
Aug-17 @ 15:56 UTC (55 minutes ago) Visual Flight Rules
Wind Visibility Clouds
190° at 5 knots 10 miles
  • Clear skies
Temperatures Readings
Current 29°C / 84°F
Dewpoint 23°C / 73°F
Humidity 70%
Altimeter 30.08" Hg
Pressure 1018.6 hPa
Elevation 48
METAR KBLM 171556Z AUTO 19005KT 10SM CLR 29/23 A3008 RMK AO2 SLP186 T02940233
Observed Flight Rules
Aug-17 @ 15:56 UTC
(55 minutes ago)
VFR
Wind Visibility
190° at 5 knots 10 miles
Clouds
  • Clear skies
Temperature Dewpoint
29°C / 84°F 23°C / 73°F
Humidity Altimeter Pressure
70% 30.08" Hg 1018.6 hPa